sensor_id;sensor_type;location;lat;lon;timestamp;temperature;humidity
51733;DHT22;39139;53.144;6.244;2023-05-13T00:00:40;11.70;99.90
51733;DHT22;39139;53.144;6.244;2023-05-13T00:03:06;11.60;99.90
51733;DHT22;39139;53.144;6.244;2023-05-13T00:05:32;11.60;99.90
51733;DHT22;39139;53.144;6.244;2023-05-13T00:07:58;11.60;99.90
51733;DHT22;39139;53.144;6.244;2023-05-13T00:10:26;11.50;99.90
51733;DHT22;39139;53.144;6.244;2023-05-13T00:12:52;11.50;99.90
51733;DHT22;39139;53.144;6.244;2023-05-13T00:15:18;11.50;99.90
51733;DHT22;39139;53.144;6.244;2023-05-13T00:17:43;11.50;99.90
51733;DHT22;39139;53.144;6.244;2023-05-13T00:20:09;11.50;99.90
51733;DHT22;39139;53.144;6.244;2023-05-13T00:22:34;11.40;99.90
51733;DHT22;39139;53.144;6.244;2023-05-13T00:25:00;11.50;99.90
51733;DHT22;39139;53.144;6.244;2023-05-13T00:27:26;11.40;99.90
51733;DHT22;39139;53.144;6.244;2023-05-13T00:29:51;11.40;99.90
51733;DHT22;39139;53.144;6.244;2023-05-13T00:32:17;11.40;99.90
51733;DHT22;39139;53.144;6.244;2023-05-13T00:34:42;11.30;99.90
51733;DHT22;39139;53.144;6.244;2023-05-13T00:37:08;11.30;99.90
51733;DHT22;39139;53.144;6.244;2023-05-13T00:39:35;11.30;99.90
51733;DHT22;39139;53.144;6.244;2023-05-13T00:42:01;11.30;99.90
51733;DHT22;39139;53.144;6.244;2023-05-13T00:44:29;11.30;99.90
51733;DHT22;39139;53.144;6.244;2023-05-13T00:46:55;11.20;99.90
51733;DHT22;39139;53.144;6.244;2023-05-13T00:49:21;11.10;99.90
51733;DHT22;39139;53.144;6.244;2023-05-13T00:51:47;11.20;99.90
51733;DHT22;39139;53.144;6.244;2023-05-13T00:54:12;11.20;99.90
51733;DHT22;39139;53.144;6.244;2023-05-13T00:56:38;11.10;99.90
51733;DHT22;39139;53.144;6.244;2023-05-13T00:59:04;11.10;99.90
51733;DHT22;39139;53.144;6.244;2023-05-13T01:01:55;11.10;99.90
51733;DHT22;39139;53.144;6.244;2023-05-13T01:12:52;11.00;99.90
51733;DHT22;39139;53.144;6.244;2023-05-13T01:15:25;10.90;99.90
51733;DHT22;39139;53.144;6.244;2023-05-13T01:18:07;10.90;99.90
51733;DHT22;39139;53.144;6.244;2023-05-13T01:20:34;10.90;99.90
51733;DHT22;39139;53.144;6.244;2023-05-13T01:23:02;10.90;99.90
51733;DHT22;39139;53.144;6.244;2023-05-13T01:25:28;10.90;99.90
51733;DHT22;39139;53.144;6.244;2023-05-13T01:27:54;10.90;99.90
51733;DHT22;39139;53.144;6.244;2023-05-13T01:30:20;10.90;99.90
51733;DHT22;39139;53.144;6.244;2023-05-13T01:32:47;10.90;99.90
51733;DHT22;39139;53.144;6.244;2023-05-13T01:35:14;10.80;99.90
51733;DHT22;39139;53.144;6.244;2023-05-13T01:37:41;10.80;99.90
51733;DHT22;39139;53.144;6.244;2023-05-13T01:40:08;10.90;99.90
51733;DHT22;39139;53.144;6.244;2023-05-13T01:42:34;10.80;99.90
51733;DHT22;39139;53.144;6.244;2023-05-13T01:44:59;10.70;99.90
51733;DHT22;39139;53.144;6.244;2023-05-13T01:47:25;10.70;99.90
51733;DHT22;39139;53.144;6.244;2023-05-13T01:49:51;10.70;99.90
51733;DHT22;39139;53.144;6.244;2023-05-13T01:52:17;10.90;99.90
51733;DHT22;39139;53.144;6.244;2023-05-13T01:54:43;10.70;99.90
51733;DHT22;39139;53.144;6.244;2023-05-13T01:57:08;10.70;99.90
51733;DHT22;39139;53.144;6.244;2023-05-13T01:59:34;10.60;99.90
51733;DHT22;39139;53.144;6.244;2023-05-13T02:02:00;10.70;99.90
51733;DHT22;39139;53.144;6.244;2023-05-13T02:04:26;10.60;99.90
51733;DHT22;39139;53.144;6.244;2023-05-13T02:06:51;10.60;99.90
51733;DHT22;39139;53.144;6.244;2023-05-13T02:09:17;10.60;99.90
51733;DHT22;39139;53.144;6.244;2023-05-13T02:11:44;10.60;99.90
51733;DHT22;39139;53.144;6.244;2023-05-13T02:14:10;10.60;99.90
51733;DHT22;39139;53.144;6.244;2023-05-13T02:16:36;10.60;99.90
51733;DHT22;39139;53.144;6.244;2023-05-13T02:19:02;10.60;99.90
51733;DHT22;39139;53.144;6.244;2023-05-13T02:21:27;10.60;99.90
51733;DHT22;39139;53.144;6.244;2023-05-13T02:23:53;10.60;99.90
51733;DHT22;39139;53.144;6.244;2023-05-13T02:26:19;10.60;99.90
51733;DHT22;39139;53.144;6.244;2023-05-13T02:28:44;10.60;99.90
51733;DHT22;39139;53.144;6.244;2023-05-13T02:31:10;10.60;99.90
51733;DHT22;39139;53.144;6.244;2023-05-13T02:33:35;10.60;99.90
51733;DHT22;39139;53.144;6.244;2023-05-13T02:36:01;10.60;99.90
51733;DHT22;39139;53.144;6.244;2023-05-13T02:38:27;10.60;99.90
51733;DHT22;39139;53.144;6.244;2023-05-13T02:40:52;10.50;99.90
51733;DHT22;39139;53.144;6.244;2023-05-13T02:43:18;10.50;99.90
51733;DHT22;39139;53.144;6.244;2023-05-13T02:45:46;10.60;99.90
51733;DHT22;39139;53.144;6.244;2023-05-13T02:48:12;10.50;99.90
51733;DHT22;39139;53.144;6.244;2023-05-13T02:50:38;10.50;99.90
51733;DHT22;39139;53.144;6.244;2023-05-13T02:53:05;10.60;99.90
51733;DHT22;39139;53.144;6.244;2023-05-13T02:55:30;10.50;99.90
51733;DHT22;39139;53.144;6.244;2023-05-13T02:57:56;10.60;99.90
51733;DHT22;39139;53.144;6.244;2023-05-13T03:00:21;10.60;99.90
51733;DHT22;39139;53.144;6.244;2023-05-13T03:02:47;10.60;99.90
51733;DHT22;39139;53.144;6.244;2023-05-13T03:05:13;10.80;99.90
51733;DHT22;39139;53.144;6.244;2023-05-13T03:07:38;10.70;99.90
51733;DHT22;39139;53.144;6.244;2023-05-13T03:10:04;10.70;99.90
51733;DHT22;39139;53.144;6.244;2023-05-13T03:12:30;10.70;99.90
51733;DHT22;39139;53.144;6.244;2023-05-13T03:14:59;10.70;99.90
51733;DHT22;39139;53.144;6.244;2023-05-13T03:17:24;10.70;99.90
51733;DHT22;39139;53.144;6.244;2023-05-13T03:19:50;10.80;99.90
51733;DHT22;39139;53.144;6.244;2023-05-13T03:22:16;10.80;99.90
51733;DHT22;39139;53.144;6.244;2023-05-13T03:24:42;10.80;99.90
51733;DHT22;39139;53.144;6.244;2023-05-13T03:27:08;10.80;99.90
51733;DHT22;39139;53.144;6.244;2023-05-13T03:29:34;10.80;99.90
51733;DHT22;39139;53.144;6.244;2023-05-13T03:32:00;10.70;99.90
51733;DHT22;39139;53.144;6.244;2023-05-13T03:34:25;10.70;99.90
51733;DHT22;39139;53.144;6.244;2023-05-13T03:36:51;10.70;99.90
51733;DHT22;39139;53.144;6.244;2023-05-13T03:39:17;10.70;99.90
51733;DHT22;39139;53.144;6.244;2023-05-13T03:41:42;10.70;99.90
51733;DHT22;39139;53.144;6.244;2023-05-13T03:44:08;10.70;99.90
51733;DHT22;39139;53.144;6.244;2023-05-13T03:46:34;10.60;99.90
51733;DHT22;39139;53.144;6.244;2023-05-13T03:48:59;10.70;99.90
51733;DHT22;39139;53.144;6.244;2023-05-13T03:51:25;10.70;99.90
51733;DHT22;39139;53.144;6.244;2023-05-13T03:53:51;10.80;99.90
51733;DHT22;39139;53.144;6.244;2023-05-13T03:56:16;10.80;99.90
51733;DHT22;39139;53.144;6.244;2023-05-13T03:58:42;10.70;99.90
51733;DHT22;39139;53.144;6.244;2023-05-13T04:01:07;10.70;99.90
51733;DHT22;39139;53.144;6.244;2023-05-13T04:03:33;10.70;99.90
51733;DHT22;39139;53.144;6.244;2023-05-13T04:05:59;10.60;99.90
51733;DHT22;39139;53.144;6.244;2023-05-13T04:08:25;10.60;99.90
51733;DHT22;39139;53.144;6.244;2023-05-13T04:10:51;10.70;99.90
51733;DHT22;39139;53.144;6.244;2023-05-13T04:13:17;10.70;99.90
51733;DHT22;39139;53.144;6.244;2023-05-13T04:15:43;10.60;99.90
51733;DHT22;39139;53.144;6.244;2023-05-13T04:18:08;10.60;99.90
51733;DHT22;39139;53.144;6.244;2023-05-13T04:20:36;10.60;99.90
51733;DHT22;39139;53.144;6.244;2023-05-13T04:23:02;10.60;99.90
51733;DHT22;39139;53.144;6.244;2023-05-13T04:25:28;10.60;99.90
51733;DHT22;39139;53.144;6.244;2023-05-13T04:27:54;10.60;99.90
51733;DHT22;39139;53.144;6.244;2023-05-13T04:30:19;10.60;99.90
51733;DHT22;39139;53.144;6.244;2023-05-13T04:32:45;10.60;99.90
51733;DHT22;39139;53.144;6.244;2023-05-13T04:35:11;10.60;99.90
51733;DHT22;39139;53.144;6.244;2023-05-13T04:37:36;10.70;99.90
51733;DHT22;39139;53.144;6.244;2023-05-13T04:40:03;10.70;99.90
51733;DHT22;39139;53.144;6.244;2023-05-13T04:42:28;10.80;99.90
51733;DHT22;39139;53.144;6.244;2023-05-13T04:44:54;10.80;99.90
51733;DHT22;39139;53.144;6.244;2023-05-13T04:47:20;10.80;99.90
51733;DHT22;39139;53.144;6.244;2023-05-13T04:49:45;10.80;99.90
51733;DHT22;39139;53.144;6.244;2023-05-13T04:52:11;10.90;99.90
51733;DHT22;39139;53.144;6.244;2023-05-13T04:54:39;10.90;99.90
51733;DHT22;39139;53.144;6.244;2023-05-13T04:57:06;10.90;99.90
51733;DHT22;39139;53.144;6.244;2023-05-13T04:59:31;11.00;99.90
51733;DHT22;39139;53.144;6.244;2023-05-13T05:01:57;11.00;99.90
51733;DHT22;39139;53.144;6.244;2023-05-13T05:04:23;11.10;99.90
51733;DHT22;39139;53.144;6.244;2023-05-13T05:06:49;11.10;99.90
51733;DHT22;39139;53.144;6.244;2023-05-13T05:09:15;11.30;99.90
51733;DHT22;39139;53.144;6.244;2023-05-13T05:11:42;11.20;99.90
51733;DHT22;39139;53.144;6.244;2023-05-13T05:14:07;11.30;99.90
51733;DHT22;39139;53.144;6.244;2023-05-13T05:16:33;12.00;99.90
51733;DHT22;39139;53.144;6.244;2023-05-13T05:18:59;11.40;99.90
51733;DHT22;39139;53.144;6.244;2023-05-13T05:21:25;11.50;99.90
51733;DHT22;39139;53.144;6.244;2023-05-13T05:23:50;11.50;99.90
51733;DHT22;39139;53.144;6.244;2023-05-13T05:26:16;11.60;99.90
51733;DHT22;39139;53.144;6.244;2023-05-13T05:28:43;11.70;99.90
51733;DHT22;39139;53.144;6.244;2023-05-13T05:31:09;11.70;99.90
51733;DHT22;39139;53.144;6.244;2023-05-13T05:33:35;11.80;99.90
51733;DHT22;39139;53.144;6.244;2023-05-13T05:36:01;11.90;99.90
51733;DHT22;39139;53.144;6.244;2023-05-13T05:38:27;12.00;99.90
51733;DHT22;39139;53.144;6.244;2023-05-13T05:40:52;12.00;99.90
51733;DHT22;39139;53.144;6.244;2023-05-13T05:43:18;12.10;99.90
51733;DHT22;39139;53.144;6.244;2023-05-13T05:45:45;12.10;99.90
51733;DHT22;39139;53.144;6.244;2023-05-13T05:48:10;12.50;99.90
51733;DHT22;39139;53.144;6.244;2023-05-13T05:50:36;12.30;99.90
51733;DHT22;39139;53.144;6.244;2023-05-13T05:53:02;12.30;99.90
51733;DHT22;39139;53.144;6.244;2023-05-13T05:55:28;12.40;99.90
51733;DHT22;39139;53.144;6.244;2023-05-13T05:57:56;12.50;99.90
51733;DHT22;39139;53.144;6.244;2023-05-13T06:00:22;12.60;99.90
51733;DHT22;39139;53.144;6.244;2023-05-13T06:02:48;12.70;99.90
51733;DHT22;39139;53.144;6.244;2023-05-13T06:05:14;12.80;99.90
51733;DHT22;39139;53.144;6.244;2023-05-13T06:07:40;12.80;99.90
51733;DHT22;39139;53.144;6.244;2023-05-13T06:10:06;12.90;99.90
51733;DHT22;39139;53.144;6.244;2023-05-13T06:12:32;13.00;99.90
51733;DHT22;39139;53.144;6.244;2023-05-13T06:14:58;13.20;99.90
51733;DHT22;39139;53.144;6.244;2023-05-13T06:17:24;13.20;99.90
51733;DHT22;39139;53.144;6.244;2023-05-13T06:19:50;13.30;99.90
51733;DHT22;39139;53.144;6.244;2023-05-13T06:22:15;13.40;99.90
51733;DHT22;39139;53.144;6.244;2023-05-13T06:24:41;13.50;99.90
51733;DHT22;39139;53.144;6.244;2023-05-13T06:27:12;13.60;99.90
51733;DHT22;39139;53.144;6.244;2023-05-13T06:29:38;13.70;99.90
51733;DHT22;39139;53.144;6.244;2023-05-13T06:32:04;13.80;99.90
51733;DHT22;39139;53.144;6.244;2023-05-13T06:34:29;14.00;99.90
51733;DHT22;39139;53.144;6.244;2023-05-13T06:36:55;14.10;99.90
51733;DHT22;39139;53.144;6.244;2023-05-13T06:39:21;14.20;99.90
51733;DHT22;39139;53.144;6.244;2023-05-13T06:41:46;14.30;99.90
51733;DHT22;39139;53.144;6.244;2023-05-13T06:44:12;14.40;99.90
51733;DHT22;39139;53.144;6.244;2023-05-13T06:46:38;14.50;99.90
51733;DHT22;39139;53.144;6.244;2023-05-13T06:49:03;14.60;99.90
51733;DHT22;39139;53.144;6.244;2023-05-13T06:51:29;14.70;99.90
51733;DHT22;39139;53.144;6.244;2023-05-13T06:53:57;14.90;99.90
51733;DHT22;39139;53.144;6.244;2023-05-13T06:56:23;14.90;99.90
51733;DHT22;39139;53.144;6.244;2023-05-13T06:58:49;15.00;99.90
51733;DHT22;39139;53.144;6.244;2023-05-13T07:01:15;15.00;99.90
51733;DHT22;39139;53.144;6.244;2023-05-13T07:03:44;15.00;99.90
51733;DHT22;39139;53.144;6.244;2023-05-13T07:06:10;15.00;99.90
51733;DHT22;39139;53.144;6.244;2023-05-13T07:08:36;15.00;99.90
51733;DHT22;39139;53.144;6.244;2023-05-13T07:11:02;15.10;99.90
51733;DHT22;39139;53.144;6.244;2023-05-13T07:13:28;15.10;99.90
51733;DHT22;39139;53.144;6.244;2023-05-13T07:15:54;15.20;99.90
51733;DHT22;39139;53.144;6.244;2023-05-13T07:18:20;15.20;99.90
51733;DHT22;39139;53.144;6.244;2023-05-13T07:20:45;15.30;99.90
51733;DHT22;39139;53.144;6.244;2023-05-13T07:23:11;15.30;99.90
51733;DHT22;39139;53.144;6.244;2023-05-13T07:25:37;15.40;99.90
51733;DHT22;39139;53.144;6.244;2023-05-13T07:28:03;15.40;99.90
51733;DHT22;39139;53.144;6.244;2023-05-13T07:30:29;15.50;99.90
51733;DHT22;39139;53.144;6.244;2023-05-13T07:32:55;16.30;99.90
51733;DHT22;39139;53.144;6.244;2023-05-13T07:35:20;15.60;99.90
51733;DHT22;39139;53.144;6.244;2023-05-13T07:37:46;15.70;99.90
51733;DHT22;39139;53.144;6.244;2023-05-13T07:40:12;15.80;99.90
51733;DHT22;39139;53.144;6.244;2023-05-13T07:42:39;15.90;99.90
51733;DHT22;39139;53.144;6.244;2023-05-13T07:45:08;16.00;99.90
51733;DHT22;39139;53.144;6.244;2023-05-13T07:47:34;16.20;99.90
51733;DHT22;39139;53.144;6.244;2023-05-13T07:50:01;16.20;99.90
51733;DHT22;39139;53.144;6.244;2023-05-13T07:52:26;16.30;99.90
51733;DHT22;39139;53.144;6.244;2023-05-13T07:54:52;16.40;99.90
51733;DHT22;39139;53.144;6.244;2023-05-13T07:57:18;16.50;99.90
51733;DHT22;39139;53.144;6.244;2023-05-13T07:59:44;16.70;99.90
51733;DHT22;39139;53.144;6.244;2023-05-13T08:02:10;16.70;99.90
51733;DHT22;39139;53.144;6.244;2023-05-13T08:04:36;16.90;99.90
51733;DHT22;39139;53.144;6.244;2023-05-13T08:07:02;17.00;99.90
51733;DHT22;39139;53.144;6.244;2023-05-13T08:09:29;17.20;99.90
51733;DHT22;39139;53.144;6.244;2023-05-13T08:11:54;17.30;99.90
51733;DHT22;39139;53.144;6.244;2023-05-13T08:14:20;17.50;99.90
51733;DHT22;39139;53.144;6.244;2023-05-13T08:16:46;17.60;99.90
51733;DHT22;39139;53.144;6.244;2023-05-13T08:19:15;17.80;99.90
51733;DHT22;39139;53.144;6.244;2023-05-13T08:21:41;18.00;99.90
51733;DHT22;39139;53.144;6.244;2023-05-13T08:24:07;18.60;99.90
51733;DHT22;39139;53.144;6.244;2023-05-13T08:26:32;19.40;99.90
51733;DHT22;39139;53.144;6.244;2023-05-13T08:28:59;20.20;99.90
51733;DHT22;39139;53.144;6.244;2023-05-13T08:31:24;20.90;99.90
51733;DHT22;39139;53.144;6.244;2023-05-13T08:33:53;21.50;99.90
51733;DHT22;39139;53.144;6.244;2023-05-13T08:36:20;21.80;99.90
51733;DHT22;39139;53.144;6.244;2023-05-13T08:38:47;22.30;99.90
51733;DHT22;39139;53.144;6.244;2023-05-13T08:41:13;22.80;99.90
51733;DHT22;39139;53.144;6.244;2023-05-13T08:43:43;23.20;99.90
51733;DHT22;39139;53.144;6.244;2023-05-13T08:46:11;23.40;99.90
51733;DHT22;39139;53.144;6.244;2023-05-13T08:48:38;23.70;99.90
51733;DHT22;39139;53.144;6.244;2023-05-13T08:51:05;24.20;99.90
51733;DHT22;39139;53.144;6.244;2023-05-13T08:53:33;24.30;99.90
51733;DHT22;39139;53.144;6.244;2023-05-13T08:56:00;24.40;99.90
51733;DHT22;39139;53.144;6.244;2023-05-13T08:58:25;24.60;99.90
51733;DHT22;39139;53.144;6.244;2023-05-13T09:00:52;24.70;99.90
51733;DHT22;39139;53.144;6.244;2023-05-13T09:03:21;24.70;99.90
51733;DHT22;39139;53.144;6.244;2023-05-13T09:05:47;24.90;99.90
51733;DHT22;39139;53.144;6.244;2023-05-13T09:08:13;25.00;99.90
51733;DHT22;39139;53.144;6.244;2023-05-13T09:10:39;25.20;99.90
51733;DHT22;39139;53.144;6.244;2023-05-13T09:13:05;25.50;99.90
51733;DHT22;39139;53.144;6.244;2023-05-13T09:15:31;25.70;99.90
51733;DHT22;39139;53.144;6.244;2023-05-13T09:18:05;25.70;99.90
51733;DHT22;39139;53.144;6.244;2023-05-13T09:20:31;25.70;99.90
51733;DHT22;39139;53.144;6.244;2023-05-13T09:23:06;25.60;99.90
51733;DHT22;39139;53.144;6.244;2023-05-13T09:25:33;25.60;99.90
51733;DHT22;39139;53.144;6.244;2023-05-13T09:28:01;25.50;99.90
51733;DHT22;39139;53.144;6.244;2023-05-13T09:30:31;25.20;99.90
51733;DHT22;39139;53.144;6.244;2023-05-13T09:33:11;24.90;99.90
51733;DHT22;39139;53.144;6.244;2023-05-13T09:35:41;24.60;99.90
51733;DHT22;39139;53.144;6.244;2023-05-13T09:38:19;24.30;99.90
51733;DHT22;39139;53.144;6.244;2023-05-13T09:43:20;24.20;99.90
51733;DHT22;39139;53.144;6.244;2023-05-13T09:45:46;24.10;99.90
51733;DHT22;39139;53.144;6.244;2023-05-13T09:48:12;23.80;99.90
51733;DHT22;39139;53.144;6.244;2023-05-13T09:50:57;23.80;99.90
51733;DHT22;39139;53.144;6.244;2023-05-13T09:53:24;23.80;99.90
51733;DHT22;39139;53.144;6.244;2023-05-13T09:55:52;23.70;99.90
51733;DHT22;39139;53.144;6.244;2023-05-13T09:58:19;23.70;99.90
51733;DHT22;39139;53.144;6.244;2023-05-13T10:00:45;23.60;99.90
51733;DHT22;39139;53.144;6.244;2023-05-13T10:03:12;23.70;99.90
51733;DHT22;39139;53.144;6.244;2023-05-13T10:05:38;23.60;99.90
51733;DHT22;39139;53.144;6.244;2023-05-13T10:08:11;23.70;99.90
51733;DHT22;39139;53.144;6.244;2023-05-13T10:10:38;23.70;99.90
51733;DHT22;39139;53.144;6.244;2023-05-13T10:13:07;23.60;99.90
51733;DHT22;39139;53.144;6.244;2023-05-13T10:15:33;23.70;99.90
51733;DHT22;39139;53.144;6.244;2023-05-13T10:18:00;23.80;99.90
51733;DHT22;39139;53.144;6.244;2023-05-13T10:20:26;23.60;99.90
51733;DHT22;39139;53.144;6.244;2023-05-13T10:22:52;23.90;99.90
51733;DHT22;39139;53.144;6.244;2023-05-13T10:25:19;23.90;99.90
51733;DHT22;39139;53.144;6.244;2023-05-13T10:27:46;23.90;99.90
51733;DHT22;39139;53.144;6.244;2023-05-13T10:30:13;24.00;99.90
51733;DHT22;39139;53.144;6.244;2023-05-13T10:32:39;24.20;99.90
51733;DHT22;39139;53.144;6.244;2023-05-13T10:35:11;24.20;99.90
51733;DHT22;39139;53.144;6.244;2023-05-13T10:43:21;24.10;99.90
51733;DHT22;39139;53.144;6.244;2023-05-13T10:45:50;24.10;99.90
51733;DHT22;39139;53.144;6.244;2023-05-13T10:48:17;24.00;99.90
51733;DHT22;39139;53.144;6.244;2023-05-13T10:51:03;24.00;99.90
51733;DHT22;39139;53.144;6.244;2023-05-13T10:53:35;23.80;99.90
51733;DHT22;39139;53.144;6.244;2023-05-13T10:56:02;23.80;99.90
51733;DHT22;39139;53.144;6.244;2023-05-13T10:58:34;23.80;99.90
51733;DHT22;39139;53.144;6.244;2023-05-13T11:01:13;23.90;99.90
51733;DHT22;39139;53.144;6.244;2023-05-13T11:03:39;23.90;99.90
51733;DHT22;39139;53.144;6.244;2023-05-13T11:06:16;23.70;99.90
51733;DHT22;39139;53.144;6.244;2023-05-13T11:08:48;23.70;99.90
51733;DHT22;39139;53.144;6.244;2023-05-13T11:11:17;23.70;99.90
51733;DHT22;39139;53.144;6.244;2023-05-13T11:13:51;23.80;99.90
51733;DHT22;39139;53.144;6.244;2023-05-13T11:16:17;23.70;99.90
51733;DHT22;39139;53.144;6.244;2023-05-13T11:18:43;23.60;99.90
51733;DHT22;39139;53.144;6.244;2023-05-13T11:21:09;23.40;99.90
51733;DHT22;39139;53.144;6.244;2023-05-13T11:26:22;23.60;99.90
51733;DHT22;39139;53.144;6.244;2023-05-13T11:31:21;23.70;99.90
51733;DHT22;39139;53.144;6.244;2023-05-13T11:34:09;23.70;99.90
51733;DHT22;39139;53.144;6.244;2023-05-13T11:36:36;23.70;99.90
51733;DHT22;39139;53.144;6.244;2023-05-13T11:39:11;23.80;99.90
51733;DHT22;39139;53.144;6.244;2023-05-13T11:41:43;23.80;99.90
51733;DHT22;39139;53.144;6.244;2023-05-13T11:44:10;23.90;99.90
51733;DHT22;39139;53.144;6.244;2023-05-13T11:46:36;23.70;99.90
51733;DHT22;39139;53.144;6.244;2023-05-13T11:49:02;23.90;99.90
51733;DHT22;39139;53.144;6.244;2023-05-13T11:51:28;23.90;99.90
51733;DHT22;39139;53.144;6.244;2023-05-13T11:54:01;23.80;99.90
51733;DHT22;39139;53.144;6.244;2023-05-13T11:56:27;23.90;99.90
51733;DHT22;39139;53.144;6.244;2023-05-13T11:58:54;23.80;99.90
51733;DHT22;39139;53.144;6.244;2023-05-13T12:01:19;23.90;99.90
51733;DHT22;39139;53.144;6.244;2023-05-13T12:03:46;24.00;99.90
51733;DHT22;39139;53.144;6.244;2023-05-13T12:06:12;24.00;99.90
51733;DHT22;39139;53.144;6.244;2023-05-13T12:08:44;24.10;99.90
51733;DHT22;39139;53.144;6.244;2023-05-13T12:11:11;24.20;99.90
51733;DHT22;39139;53.144;6.244;2023-05-13T12:13:40;24.10;99.90
51733;DHT22;39139;53.144;6.244;2023-05-13T12:16:07;24.20;99.90
51733;DHT22;39139;53.144;6.244;2023-05-13T12:18:33;24.10;99.90
51733;DHT22;39139;53.144;6.244;2023-05-13T12:20:58;24.00;99.90
51733;DHT22;39139;53.144;6.244;2023-05-13T12:23:24;24.10;99.90
51733;DHT22;39139;53.144;6.244;2023-05-13T12:25:50;24.10;99.90
51733;DHT22;39139;53.144;6.244;2023-05-13T12:33:39;24.00;99.90
51733;DHT22;39139;53.144;6.244;2023-05-13T12:41:25;24.00;99.90
51733;DHT22;39139;53.144;6.244;2023-05-13T12:44:01;23.90;99.90
51733;DHT22;39139;53.144;6.244;2023-05-13T12:46:27;24.10;99.90
51733;DHT22;39139;53.144;6.244;2023-05-13T12:49:01;24.10;99.90
51733;DHT22;39139;53.144;6.244;2023-05-13T12:51:27;24.00;99.90
51733;DHT22;39139;53.144;6.244;2023-05-13T12:53:54;24.10;99.90
51733;DHT22;39139;53.144;6.244;2023-05-13T12:56:21;24.20;99.90
51733;DHT22;39139;53.144;6.244;2023-05-13T12:58:51;24.30;99.90
51733;DHT22;39139;53.144;6.244;2023-05-13T13:01:17;24.40;99.90
51733;DHT22;39139;53.144;6.244;2023-05-13T13:03:43;24.30;99.90
51733;DHT22;39139;53.144;6.244;2023-05-13T13:06:11;24.30;99.90
51733;DHT22;39139;53.144;6.244;2023-05-13T13:08:37;24.20;99.90
51733;DHT22;39139;53.144;6.244;2023-05-13T13:11:02;24.30;99.90
51733;DHT22;39139;53.144;6.244;2023-05-13T13:13:29;24.40;99.90
51733;DHT22;39139;53.144;6.244;2023-05-13T13:15:54;24.40;99.90
51733;DHT22;39139;53.144;6.244;2023-05-13T13:18:20;24.40;99.90
51733;DHT22;39139;53.144;6.244;2023-05-13T13:20:46;24.40;99.90
51733;DHT22;39139;53.144;6.244;2023-05-13T13:23:12;24.50;99.90
51733;DHT22;39139;53.144;6.244;2023-05-13T13:25:37;24.50;99.90
51733;DHT22;39139;53.144;6.244;2023-05-13T13:28:03;24.30;99.90
51733;DHT22;39139;53.144;6.244;2023-05-13T13:30:29;24.20;99.90
51733;DHT22;39139;53.144;6.244;2023-05-13T13:32:55;24.20;99.90
51733;DHT22;39139;53.144;6.244;2023-05-13T13:35:20;24.10;99.90
51733;DHT22;39139;53.144;6.244;2023-05-13T13:37:46;24.10;99.90
51733;DHT22;39139;53.144;6.244;2023-05-13T13:40:12;24.10;99.90
51733;DHT22;39139;53.144;6.244;2023-05-13T13:42:38;24.10;99.90
51733;DHT22;39139;53.144;6.244;2023-05-13T13:45:04;24.00;99.90
51733;DHT22;39139;53.144;6.244;2023-05-13T13:47:29;24.10;99.90
51733;DHT22;39139;53.144;6.244;2023-05-13T13:49:55;24.20;99.90
51733;DHT22;39139;53.144;6.244;2023-05-13T13:52:21;24.20;99.90
51733;DHT22;39139;53.144;6.244;2023-05-13T13:54:48;24.10;99.90
51733;DHT22;39139;53.144;6.244;2023-05-13T13:57:13;24.20;99.90
51733;DHT22;39139;53.144;6.244;2023-05-13T13:59:39;24.20;99.90
51733;DHT22;39139;53.144;6.244;2023-05-13T14:02:05;24.10;99.90
51733;DHT22;39139;53.144;6.244;2023-05-13T14:04:31;24.10;99.90
51733;DHT22;39139;53.144;6.244;2023-05-13T14:06:58;24.10;99.90
51733;DHT22;39139;53.144;6.244;2023-05-13T14:09:23;24.20;99.90
51733;DHT22;39139;53.144;6.244;2023-05-13T14:11:49;24.10;99.90
51733;DHT22;39139;53.144;6.244;2023-05-13T14:14:16;24.10;99.90
51733;DHT22;39139;53.144;6.244;2023-05-13T14:16:42;24.00;99.90
51733;DHT22;39139;53.144;6.244;2023-05-13T14:19:09;24.00;99.90
51733;DHT22;39139;53.144;6.244;2023-05-13T14:21:35;24.00;99.90
51733;DHT22;39139;53.144;6.244;2023-05-13T14:24:01;23.90;99.90
51733;DHT22;39139;53.144;6.244;2023-05-13T14:26:27;23.80;99.90
51733;DHT22;39139;53.144;6.244;2023-05-13T14:28:53;23.80;99.90
51733;DHT22;39139;53.144;6.244;2023-05-13T14:31:19;23.80;99.90
51733;DHT22;39139;53.144;6.244;2023-05-13T14:33:45;23.70;99.90
51733;DHT22;39139;53.144;6.244;2023-05-13T14:36:10;23.60;99.90
51733;DHT22;39139;53.144;6.244;2023-05-13T14:38:41;23.60;99.90
51733;DHT22;39139;53.144;6.244;2023-05-13T14:41:07;23.40;99.90
51733;DHT22;39139;53.144;6.244;2023-05-13T14:43:32;23.50;99.90
51733;DHT22;39139;53.144;6.244;2023-05-13T14:45:58;23.50;99.90
51733;DHT22;39139;53.144;6.244;2023-05-13T14:48:23;23.40;99.90
51733;DHT22;39139;53.144;6.244;2023-05-13T14:50:49;23.30;99.90
51733;DHT22;39139;53.144;6.244;2023-05-13T14:53:15;23.20;99.90
51733;DHT22;39139;53.144;6.244;2023-05-13T14:55:41;23.30;99.90
51733;DHT22;39139;53.144;6.244;2023-05-13T14:58:07;23.20;99.90
51733;DHT22;39139;53.144;6.244;2023-05-13T15:00:33;23.00;99.90
51733;DHT22;39139;53.144;6.244;2023-05-13T15:03:02;23.00;99.90
51733;DHT22;39139;53.144;6.244;2023-05-13T15:05:27;23.00;99.90
51733;DHT22;39139;53.144;6.244;2023-05-13T15:07:53;22.90;99.90
51733;DHT22;39139;53.144;6.244;2023-05-13T15:10:19;22.90;99.90
51733;DHT22;39139;53.144;6.244;2023-05-13T15:12:44;22.80;99.90
51733;DHT22;39139;53.144;6.244;2023-05-13T15:15:10;22.80;99.90
51733;DHT22;39139;53.144;6.244;2023-05-13T15:17:36;22.80;99.90
51733;DHT22;39139;53.144;6.244;2023-05-13T15:20:02;22.60;99.90
51733;DHT22;39139;53.144;6.244;2023-05-13T15:22:28;22.40;99.90
51733;DHT22;39139;53.144;6.244;2023-05-13T15:24:54;22.40;99.90
51733;DHT22;39139;53.144;6.244;2023-05-13T15:27:19;22.40;99.90
51733;DHT22;39139;53.144;6.244;2023-05-13T15:29:45;22.40;99.90
51733;DHT22;39139;53.144;6.244;2023-05-13T15:32:10;22.20;99.90
51733;DHT22;39139;53.144;6.244;2023-05-13T15:34:36;22.20;99.90
51733;DHT22;39139;53.144;6.244;2023-05-13T15:37:02;22.10;99.90
51733;DHT22;39139;53.144;6.244;2023-05-13T15:39:27;22.00;99.90
51733;DHT22;39139;53.144;6.244;2023-05-13T15:41:53;21.80;99.90
51733;DHT22;39139;53.144;6.244;2023-05-13T15:44:19;21.90;99.90
51733;DHT22;39139;53.144;6.244;2023-05-13T15:46:46;21.90;99.90
51733;DHT22;39139;53.144;6.244;2023-05-13T15:49:11;21.80;99.90
51733;DHT22;39139;53.144;6.244;2023-05-13T15:51:38;21.80;99.90
51733;DHT22;39139;53.144;6.244;2023-05-13T15:54:04;21.70;99.90
51733;DHT22;39139;53.144;6.244;2023-05-13T15:56:29;21.70;99.90
51733;DHT22;39139;53.144;6.244;2023-05-13T15:58:55;21.60;99.90